Krisjanis Valdemars — V7LI9 — position and weather

sailwx.info

Track history (hours):
 
Tides and Currents Weather Stations Pressure Air Temp Water Temp Dewpoint Dewpoint Depression Visibility Wind Speed Wind Dir Waves Ship Positions

Krisjanis Valdemars

Last reported at 2015-Jan-29 19:17 UTC. Time now 2015-Jan-31 08:40 UTC.
Position N 41°18' E 002°12'.

Length 183 m; draft 6.8 m.

Type: Tanker. MMSI: 538002757.

Date/timePositionNaut miles runAvg speedWind from/ knotsBaromVisibWave heightAir tempDewpointWater temp
2015-Jan-29 19:17N 41°18' E 002°12'0 0.0
2015-Jan-29 18:32N 41°18' E 002°12'0 0.0
2015-Jan-29 16:24N 41°18' E 002°12'3 0.6
2015-Jan-29 11:14N 41°16' E 002°15'910.5
2015-Jan-29 10:22N 41°10' E 002°25'1012.8
2015-Jan-29 09:33N 41°05' E 002°37'1313.0
2015-Jan-29 08:33N 40°58' E 002°52'1312.6
2015-Jan-29 07:33N 40°52' E 003°06'1212.4
2015-Jan-29 06:33N 40°46' E 003°20'2812.9
2015-Jan-29 04:25N 40°31' E 003°52'227 6.3
2015-Jan-27 16:30N 38°36' E 008°05'7 0.2
2015-Jan-26 11:19N 38°40' E 008°14'911.4
2015-Jan-26 10:32N 38°39' E 008°25'1211.7
2015-Jan-26 09:33N 38°38' E 008°40'1212.2
2015-Jan-26 08:33N 38°38' E 008°55'1412.5
2015-Jan-26 07:26N 38°37' E 009°13'1313.2
2015-Jan-26 06:27N 38°36' E 009°30'15713.1
2015-Jan-25 18:27N 38°28' E 012°51'1213.2
2015-Jan-25 17:31N 38°28' E 013°06'1313.1
2015-Jan-25 16:33N 38°27' E 013°23'1313.0
2015-Jan-25 15:33N 38°25' E 013°39'1313.1
2015-Jan-25 14:33N 38°24' E 013°56'1413.2
2015-Jan-25 13:29N 38°22' E 014°14'4013.6
2015-Jan-25 10:31N 38°19' E 015°05'1010.8
2015-Jan-25 09:33N 38°16' E 015°18'4 3.5
2015-Jan-25 08:31N 38°13' E 015°16'0 0.0
2015-Jan-25 07:31N 38°13' E 015°16'0 0.0
2015-Jan-25 06:31N 38°13' E 015°16'0 0.0
2015-Jan-24 18:12N 38°13' E 015°16'0 0.0
2015-Jan-24 17:31N 38°13' E 015°16'0 0.0
2015-Jan-24 16:30N 38°13' E 015°16'0 0.0
2015-Jan-24 15:30N 38°13' E 015°16'0 0.0
2015-Jan-24 14:30N 38°13' E 015°16'0 0.0
2015-Jan-24 13:24N 38°13' E 015°16'0 0.0
2015-Jan-24 12:30N 38°13' E 015°16'0 0.0
2015-Jan-24 11:30N 38°13' E 015°16'0 0.0
2015-Jan-24 10:33N 38°13' E 015°16'3 2.5
2015-Jan-24 09:28N 38°14' E 015°19'0 0.0
2015-Jan-24 08:28N 38°14' E 015°19'0 0.0
2015-Jan-24 07:28N 38°14' E 015°19'0 0.0
2015-Jan-24 06:28N 38°14' E 015°19'0 0.1
2015-Jan-24 05:28N 38°14' E 015°19'0 0.1
2015-Jan-24 04:28N 38°14' E 015°19'0 0.1
2015-Jan-24 03:28N 38°14' E 015°19'0 0.1
2015-Jan-24 02:28N 38°14' E 015°19'0 0.0
2015-Jan-24 01:22N 38°14' E 015°19'0 0.1
2015-Jan-24 00:28N 38°14' E 015°19'0 0.1
2015-Jan-23 23:28N 38°14' E 015°19'0 0.1
2015-Jan-23 22:28N 38°14' E 015°19'0 0.0
2015-Jan-23 21:28N 38°14' E 015°19'0 0.0
2015-Jan-23 20:28N 38°14' E 015°19'0 0.1
2015-Jan-23 19:28N 38°14' E 015°19'0 0.1
2015-Jan-23 18:28N 38°14' E 015°19'0 0.1
2015-Jan-23 17:28N 38°14' E 015°19'0 0.0
2015-Jan-23 16:28N 38°14' E 015°19'0 0.1
2015-Jan-23 15:16N 38°14' E 015°19'0 0.0
2015-Jan-23 14:22N 38°14' E 015°19'0 0.0
2015-Jan-23 13:28N 38°14' E 015°19'0 0.0
2015-Jan-23 12:22N 38°14' E 015°19'0 0.0
2015-Jan-23 11:28N 38°14' E 015°19'0 0.0
2015-Jan-23 10:28N 38°14' E 015°19'0 0.0
2015-Jan-23 09:28N 38°14' E 015°19'0 0.1
2015-Jan-23 08:28N 38°14' E 015°19'0 0.0
2015-Jan-23 07:28N 38°14' E 015°19'0 0.0
2015-Jan-23 06:28N 38°14' E 015°19'0 0.0
2015-Jan-22 13:22N 38°14' E 015°19'0 0.2
2015-Jan-22 12:28N 38°14' E 015°19'0 0.1
2015-Jan-22 11:28N 38°14' E 015°19'0 0.1
2015-Jan-22 10:28N 38°14' E 015°19'0 0.1
2015-Jan-22 09:28N 38°14' E 015°19'0 0.0
2015-Jan-22 08:28N 38°14' E 015°19'0 0.0
2015-Jan-22 07:28N 38°14' E 015°19'0 0.0
2015-Jan-21 19:16N 38°14' E 015°19'0 0.0
2015-Jan-21 18:28N 38°14' E 015°19'0 0.1
2015-Jan-21 17:28N 38°14' E 015°19'0 0.2
2015-Jan-21 16:28N 38°14' E 015°19'0 0.0
2015-Jan-21 15:28N 38°14' E 015°19'0 0.0
2015-Jan-21 14:28N 38°14' E 015°19'0 0.0
2015-Jan-21 13:28N 38°14' E 015°19'0 0.0
2015-Jan-21 12:28N 38°14' E 015°19'0 0.0
2015-Jan-21 11:28N 38°14' E 015°19'0 0.1
2015-Jan-21 10:28N 38°14' E 015°19'0 0.1
2015-Jan-21 09:22N 38°14' E 015°19'0 0.0
2015-Jan-21 08:28N 38°14' E 015°19'0 0.0
2015-Jan-21 07:28N 38°14' E 015°19'0 0.0
2015-Jan-21 06:28N 38°14' E 015°19'0 0.0
2015-Jan-20 19:33N 38°14' E 015°19'0 0.0
2015-Jan-20 18:33N 38°14' E 015°19'0 0.0
2015-Jan-20 17:33N 38°14' E 015°19'0 0.0
2015-Jan-20 16:33N 38°14' E 015°19'0 0.1
2015-Jan-20 15:33N 38°14' E 015°19'0 0.1
2015-Jan-20 14:33N 38°14' E 015°19'0 0.1
2015-Jan-20 13:33N 38°14' E 015°19'0 0.1
2015-Jan-20 12:33N 38°14' E 015°19'0 0.0
2015-Jan-20 11:33N 38°14' E 015°19'0 0.0
2015-Jan-20 10:33N 38°14' E 015°19'0 0.0
2015-Jan-20 09:33N 38°14' E 015°19'0 0.0
2015-Jan-20 08:33N 38°14' E 015°19'0 0.0
2015-Jan-20 07:21N 38°14' E 015°19'0 0.0
2015-Jan-20 06:33N 38°14' E 015°19'  
Track history (hours):
 
Tides and Currents Weather Stations Pressure Air Temp Water Temp Dewpoint Dewpoint Depression Visibility Wind Speed Wind Dir Waves Ship Positions

Krisjanis Valdemars

Last reported at 2015-Jan-29 19:17 UTC. Time now 2015-Jan-31 08:40 UTC.
Position N 41°18' E 002°12'.

Length 183 m; draft 6.8 m.

Type: Tanker. MMSI: 538002757.

Date/timePositionNaut miles runAvg speedWind from/ knotsBaromVisibWave heightAir tempDewpointWater temp
2015-Jan-29 19:17N 41°18' E 002°12'0 0.0
2015-Jan-29 18:32N 41°18' E 002°12'0 0.0
2015-Jan-29 16:24N 41°18' E 002°12'3 0.6
2015-Jan-29 11:14N 41°16' E 002°15'910.5
2015-Jan-29 10:22N 41°10' E 002°25'1012.8
2015-Jan-29 09:33N 41°05' E 002°37'1313.0
2015-Jan-29 08:33N 40°58' E 002°52'1312.6
2015-Jan-29 07:33N 40°52' E 003°06'1212.4
2015-Jan-29 06:33N 40°46' E 003°20'2812.9
2015-Jan-29 04:25N 40°31' E 003°52'227 6.3
2015-Jan-27 16:30N 38°36' E 008°05'7 0.2
2015-Jan-26 11:19N 38°40' E 008°14'911.4
2015-Jan-26 10:32N 38°39' E 008°25'1211.7
2015-Jan-26 09:33N 38°38' E 008°40'1212.2
2015-Jan-26 08:33N 38°38' E 008°55'1412.5
2015-Jan-26 07:26N 38°37' E 009°13'1313.2
2015-Jan-26 06:27N 38°36' E 009°30'15713.1
2015-Jan-25 18:27N 38°28' E 012°51'1213.2
2015-Jan-25 17:31N 38°28' E 013°06'1313.1
2015-Jan-25 16:33N 38°27' E 013°23'1313.0
2015-Jan-25 15:33N 38°25' E 013°39'1313.1
2015-Jan-25 14:33N 38°24' E 013°56'1413.2
2015-Jan-25 13:29N 38°22' E 014°14'4013.6
2015-Jan-25 10:31N 38°19' E 015°05'1010.8
2015-Jan-25 09:33N 38°16' E 015°18'4 3.5
2015-Jan-25 08:31N 38°13' E 015°16'0 0.0
2015-Jan-25 07:31N 38°13' E 015°16'0 0.0
2015-Jan-25 06:31N 38°13' E 015°16'0 0.0
2015-Jan-24 18:12N 38°13' E 015°16'0 0.0
2015-Jan-24 17:31N 38°13' E 015°16'0 0.0
2015-Jan-24 16:30N 38°13' E 015°16'0 0.0
2015-Jan-24 15:30N 38°13' E 015°16'0 0.0
2015-Jan-24 14:30N 38°13' E 015°16'0 0.0
2015-Jan-24 13:24N 38°13' E 015°16'0 0.0
2015-Jan-24 12:30N 38°13' E 015°16'0 0.0
2015-Jan-24 11:30N 38°13' E 015°16'0 0.0
2015-Jan-24 10:33N 38°13' E 015°16'3 2.5
2015-Jan-24 09:28N 38°14' E 015°19'0 0.0
2015-Jan-24 08:28N 38°14' E 015°19'0 0.0
2015-Jan-24 07:28N 38°14' E 015°19'0 0.0
2015-Jan-24 06:28N 38°14' E 015°19'0 0.1
2015-Jan-24 05:28N 38°14' E 015°19'0 0.1
2015-Jan-24 04:28N 38°14' E 015°19'0 0.1
2015-Jan-24 03:28N 38°14' E 015°19'0 0.1
2015-Jan-24 02:28N 38°14' E 015°19'0 0.0
2015-Jan-24 01:22N 38°14' E 015°19'0 0.1
2015-Jan-24 00:28N 38°14' E 015°19'0 0.1
2015-Jan-23 23:28N 38°14' E 015°19'0 0.1
2015-Jan-23 22:28N 38°14' E 015°19'0 0.0
2015-Jan-23 21:28N 38°14' E 015°19'0 0.0
2015-Jan-23 20:28N 38°14' E 015°19'0 0.1
2015-Jan-23 19:28N 38°14' E 015°19'0 0.1
2015-Jan-23 18:28N 38°14' E 015°19'0 0.1
2015-Jan-23 17:28N 38°14' E 015°19'0 0.0
2015-Jan-23 16:28N 38°14' E 015°19'0 0.1
2015-Jan-23 15:16N 38°14' E 015°19'0 0.0
2015-Jan-23 14:22N 38°14' E 015°19'0 0.0
2015-Jan-23 13:28N 38°14' E 015°19'0 0.0
2015-Jan-23 12:22N 38°14' E 015°19'0 0.0
2015-Jan-23 11:28N 38°14' E 015°19'0 0.0
2015-Jan-23 10:28N 38°14' E 015°19'0 0.0
2015-Jan-23 09:28N 38°14' E 015°19'0 0.1
2015-Jan-23 08:28N 38°14' E 015°19'0 0.0
2015-Jan-23 07:28N 38°14' E 015°19'0 0.0
2015-Jan-23 06:28N 38°14' E 015°19'0 0.0
2015-Jan-22 13:22N 38°14' E 015°19'0 0.2
2015-Jan-22 12:28N 38°14' E 015°19'0 0.1
2015-Jan-22 11:28N 38°14' E 015°19'0 0.1
2015-Jan-22 10:28N 38°14' E 015°19'0 0.1
2015-Jan-22 09:28N 38°14' E 015°19'0 0.0
2015-Jan-22 08:28N 38°14' E 015°19'0 0.0
2015-Jan-22 07:28N 38°14' E 015°19'0 0.0
2015-Jan-21 19:16N 38°14' E 015°19'0 0.0
2015-Jan-21 18:28N 38°14' E 015°19'0 0.1
2015-Jan-21 17:28N 38°14' E 015°19'0 0.2
2015-Jan-21 16:28N 38°14' E 015°19'0 0.0
2015-Jan-21 15:28N 38°14' E 015°19'0 0.0
2015-Jan-21 14:28N 38°14' E 015°19'0 0.0
2015-Jan-21 13:28N 38°14' E 015°19'0 0.0
2015-Jan-21 12:28N 38°14' E 015°19'0 0.0
2015-Jan-21 11:28N 38°14' E 015°19'0 0.1
2015-Jan-21 10:28N 38°14' E 015°19'0 0.1
2015-Jan-21 09:22N 38°14' E 015°19'0 0.0
2015-Jan-21 08:28N 38°14' E 015°19'0 0.0
2015-Jan-21 07:28N 38°14' E 015°19'0 0.0
2015-Jan-21 06:28N 38°14' E 015°19'0 0.0
2015-Jan-20 19:33N 38°14' E 015°19'0 0.0
2015-Jan-20 18:33N 38°14' E 015°19'0 0.0
2015-Jan-20 17:33N 38°14' E 015°19'0 0.0
2015-Jan-20 16:33N 38°14' E 015°19'0 0.1
2015-Jan-20 15:33N 38°14' E 015°19'0 0.1
2015-Jan-20 14:33N 38°14' E 015°19'0 0.1
2015-Jan-20 13:33N 38°14' E 015°19'0 0.1
2015-Jan-20 12:33N 38°14' E 015°19'0 0.0
2015-Jan-20 11:33N 38°14' E 015°19'0 0.0
2015-Jan-20 10:33N 38°14' E 015°19'0 0.0
2015-Jan-20 09:33N 38°14' E 015°19'0 0.0
2015-Jan-20 08:33N 38°14' E 015°19'0 0.0
2015-Jan-20 07:21N 38°14' E 015°19'0 0.0
2015-Jan-20 06:33N 38°14' E 015°19'  

Dump ship's entire track history